Time;durP1;ratioP1;P1;durP2;ratioP2;P2;SDS_P1;SDS_P2;PMS_P1;PMS_P2;Temp;Humidity;BMP_temperature;BMP_pressure;BME280_temperature;BME280_humidity;BME280_pressure;Samples;Min_cycle;Max_cycle;Signal;HPM_P1;HPM_P2
2022/04/21 00:00:04;;;;;;;13.50;7.60;;;;;;;6.62;68.33;98094.97;104964;1271;60993;-26
2022/04/21 00:02:33;;;;;;;15.20;8.00;;;;;;;6.58;68.12;98091.10;104908;1270;75730;-26
2022/04/21 00:05:02;;;;;;;14.10;9.20;;;;;;;6.47;68.72;98098.59;104975;1271;76051;-26
2022/04/21 00:07:29;;;;;;;12.00;8.20;;;;;;;6.28;69.73;98098.32;104953;1270;74341;-26
2022/04/21 00:09:57;;;;;;;15.40;9.70;;;;;;;5.92;71.81;98089.75;104936;1271;61157;-26
2022/04/21 00:12:44;;;;;;;16.20;9.70;;;;;;;5.71;73.28;98094.05;104838;1271;62643;-26
2022/04/21 00:15:22;;;;;;;14.60;10.60;;;;;;;5.60;74.18;98095.61;104731;1271;75403;-26
2022/04/21 00:18:09;;;;;;;15.40;9.60;;;;;;;5.55;75.02;98090.29;104756;1271;77120;-26
2022/04/21 00:20:39;;;;;;;16.40;9.90;;;;;;;6.00;73.51;98093.30;105254;1271;73315;-26
2022/04/21 00:25:59;;;;;;;15.80;10.00;;;;;;;5.98;73.66;98087.17;104804;1271;61063;-27
2022/04/21 00:28:29;;;;;;;18.00;9.60;;;;;;;5.69;74.97;98085.81;104753;1271;75614;-27
2022/04/21 00:30:57;;;;;;;21.10;12.40;;;;;;;5.54;75.49;98088.81;104774;1271;76007;-28
2022/04/21 00:33:25;;;;;;;17.50;10.40;;;;;;;5.55;75.80;98092.23;104712;1271;74532;-25
2022/04/21 00:35:53;;;;;;;9.30;6.70;;;;;;;5.51;75.88;98085.73;104977;1271;61694;-28
2022/04/21 00:38:40;;;;;;;16.60;9.00;;;;;;;5.99;74.50;98078.67;104747;1271;62130;-28
2022/04/21 00:41:08;;;;;;;20.50;10.30;;;;;;;6.23;73.61;98085.07;104900;1271;75361;-27
2022/04/21 00:43:38;;;;;;;18.20;11.10;;;;;;;5.97;75.22;98080.73;104985;1270;76759;-25
2022/04/21 00:46:07;;;;;;;17.00;9.80;;;;;;;5.85;76.45;98075.27;105000;1270;75802;-27
2022/04/21 00:48:35;;;;;;;18.20;10.80;;;;;;;5.80;76.87;98079.79;104684;1271;61815;-29
2022/04/21 00:51:02;;;;;;;12.50;8.10;;;;;;;5.52;78.24;98080.33;104964;1271;61104;-28
2022/04/21 00:53:33;;;;;;;15.40;10.20;;;;;;;5.44;78.80;98082.70;105012;1270;76522;-27
2022/04/21 00:56:01;;;;;;;12.10;8.90;;;;;;;5.82;78.17;98075.67;105210;1269;76015;-28
2022/04/21 00:58:29;;;;;;;16.00;10.30;;;;;;;6.20;76.01;98070.34;104769;1271;74567;-26
2022/04/21 01:04:04;;;;;;;13.50;10.50;;;;;;;5.90;76.64;98067.45;104904;1271;62093;-26
2022/04/21 01:06:34;;;;;;;16.30;10.70;;;;;;;5.79;76.81;98063.14;104792;1271;74536;-26
2022/04/21 01:09:21;;;;;;;15.20;10.80;;;;;;;5.49;78.25;98054.27;104925;1271;77087;-26
2022/04/21 01:11:49;;;;;;;12.30;8.70;;;;;;;5.42;78.45;98053.04;104918;1271;74412;-26
2022/04/21 01:14:37;;;;;;;18.70;10.30;;;;;;;5.94;76.77;98053.57;104668;1271;63332;-26
2022/04/21 01:17:05;;;;;;;16.00;10.30;;;;;;;6.17;75.01;98057.66;104782;1271;61119;-26
2022/04/21 01:19:34;;;;;;;16.00;10.00;;;;;;;6.20;74.68;98054.30;104719;1271;75873;-26
2022/04/21 01:22:03;;;;;;;15.00;9.60;;;;;;;6.03;75.11;98055.98;104959;1271;76244;-26
2022/04/21 01:24:30;;;;;;;13.10;10.10;;;;;;;5.79;75.99;98052.34;104805;1271;74907;-26
2022/04/21 01:26:59;;;;;;;18.60;12.50;;;;;;;5.59;76.67;98043.17;104988;1271;62128;-26
2022/04/21 01:29:27;;;;;;;15.10;10.80;;;;;;;5.39;77.66;98044.30;105097;1271;62207;-26
2022/04/21 01:31:55;;;;;;;14.80;8.40;;;;;;;5.78;76.44;98038.77;105230;1271;75481;-26
2022/04/21 01:34:23;;;;;;;16.50;10.80;;;;;;;6.07;74.83;98039.98;105009;1271;75821;-26
2022/04/21 01:42:27;;;;;;;18.60;13.00;;;;;;;5.71;76.05;98032.77;104824;1271;61155;-26
2022/04/21 01:44:54;;;;;;;14.80;10.60;;;;;;;5.56;76.73;98030.01;105042;1270;75315;-26
2022/04/21 01:47:22;;;;;;;19.00;13.00;;;;;;;5.41;77.27;98021.25;105286;1271;75942;-26
2022/04/21 01:49:49;;;;;;;16.00;11.20;;;;;;;5.81;76.16;98017.02;105301;1271;74336;-26
2022/04/21 01:52:16;;;;;;;17.50;10.70;;;;;;;6.20;74.14;98020.35;105300;1269;61050;-26
2022/04/21 01:55:04;;;;;;;15.90;9.20;;;;;;;6.25;73.63;98017.72;104936;1271;62156;-26
2022/04/21 01:57:32;;;;;;;17.20;11.50;;;;;;;6.09;74.18;98017.96;104714;1274;74633;-26
2022/04/21 01:59:59;;;;;;;18.50;12.90;;;;;;;5.96;74.48;98013.65;104763;1272;75806;-26
2022/04/21 02:02:26;;;;;;;24.30;13.30;;;;;;;5.75;75.15;98012.13;104957;1274;74660;-27
2022/04/21 02:04:54;;;;;;;17.40;11.00;;;;;;;5.61;75.83;98008.41;105133;1271;61049;-27
2022/04/21 02:07:21;;;;;;;15.90;10.20;;;;;;;6.01;74.81;98012.68;105057;1271;61089;-27
2022/04/21 02:10:08;;;;;;;18.10;11.80;;;;;;;6.38;72.95;98009.61;104922;1271;76660;-27
2022/04/21 02:12:36;;;;;;;18.40;10.80;;;;;;;6.38;72.67;98004.98;105209;1270;75770;-27
2022/04/21 02:15:23;;;;;;;17.20;12.60;;;;;;;6.18;73.49;98006.62;105274;1271;73635;-26
2022/04/21 02:17:51;;;;;;;19.20;11.60;;;;;;;5.95;74.51;98002.48;105090;1271;61124;-26
2022/04/21 02:20:18;;;;;;;24.90;15.60;;;;;;;5.68;75.47;97995.98;104914;1271;61022;-25
2022/04/21 02:22:45;;;;;;;16.20;10.60;;;;;;;5.47;76.83;97997.62;105045;1271;75497;-26
2022/04/21 02:25:14;;;;;;;17.50;11.60;;;;;;;5.91;75.61;97995.55;104729;1271;75615;-26
2022/04/21 02:27:42;;;;;;;23.00;14.40;;;;;;;6.23;74.33;97987.72;104822;1271;74200;-26
2022/04/21 02:30:12;;;;;;;21.50;14.70;;;;;;;6.16;74.28;97985.48;104792;1271;62082;-26
2022/04/21 02:32:40;;;;;;;22.70;14.40;;;;;;;6.07;74.72;97987.77;104821;1271;60996;-26
2022/04/21 02:35:09;;;;;;;23.80;14.40;;;;;;;5.78;75.82;97985.20;105005;1271;75497;-26
2022/04/21 02:37:39;;;;;;;21.10;14.10;;;;;;;5.64;76.88;97983.23;104792;1271;75083;-26
2022/04/21 02:40:07;;;;;;;22.90;15.60;;;;;;;5.52;77.43;97975.66;104987;1271;73564;-26
2022/04/21 02:42:39;;;;;;;22.80;14.60;;;;;;;5.87;76.61;97979.35;104830;1271;61132;-26
2022/04/21 02:45:26;;;;;;;21.70;13.20;;;;;;;6.17;75.08;97982.39;104902;1271;62076;-26
2022/04/21 02:47:53;;;;;;;16.90;11.30;;;;;;;6.15;75.05;97983.16;104797;1271;75571;-26
2022/04/21 02:50:28;;;;;;;26.30;16.40;;;;;;;6.03;75.46;97982.73;104702;1274;75874;-25
2022/04/21 02:52:56;;;;;;;25.20;14.30;;;;;;;5.88;76.03;97977.92;104862;1271;74443;-25
2022/04/21 02:58:10;;;;;;;23.90;13.40;;;;;;;5.52;77.75;97965.37;104835;1271;62181;-26
2022/04/21 03:00:53;;;;;;;30.30;17.30;;;;;;;6.01;76.21;97970.30;104820;1271;75510;-26
2022/04/21 03:03:20;;;;;;;23.40;13.70;;;;;;;6.11;75.69;97973.14;104961;1271;75982;-25
2022/04/21 03:05:49;;;;;;;31.80;18.60;;;;;;;6.10;75.59;97970.47;104890;1271;74404;-25
2022/04/21 03:08:16;;;;;;;30.50;19.50;;;;;;;5.94;76.07;97959.15;104931;1271;61212;-25
2022/04/21 03:10:43;;;;;;;34.10;19.90;;;;;;;5.74;77.13;97967.60;104928;1271;61899;-25
2022/04/21 03:13:11;;;;;;;26.30;15.20;;;;;;;5.55;78.13;97965.52;105080;1271;75362;-26
2022/04/21 03:15:38;;;;;;;24.80;13.10;;;;;;;5.72;77.69;97963.07;104972;1271;75730;-25
2022/04/21 03:18:06;;;;;;;32.30;18.30;;;;;;;6.16;76.01;97961.75;105040;1271;74554;-25
2022/04/21 03:26:17;;;;;;;29.50;17.30;;;;;;;5.61;78.58;97961.93;105261;1271;75525;-26
2022/04/21 03:28:57;;;;;;;39.10;18.80;;;;;;;5.45;79.54;97966.58;105095;1271;75957;-25
2022/04/21 03:31:25;;;;;;;20.30;12.30;;;;;;;5.58;79.76;97969.58;105089;1271;74786;-26
2022/04/21 03:33:54;;;;;;;29.50;16.80;;;;;;;5.97;78.24;97967.02;105039;1271;61061;-26
2022/04/21 03:36:22;;;;;;;34.40;17.70;;;;;;;5.94;78.06;97961.06;104909;1271;61201;-25
2022/04/21 03:38:54;;;;;;;33.40;18.60;;;;;;;5.76;78.76;97967.64;104873;1271;75502;-25
2022/04/21 03:41:30;;;;;;;32.80;19.30;;;;;;;5.64;79.17;97959.94;104891;1271;75987;-25
2022/04/21 03:43:58;;;;;;;36.30;20.60;;;;;;;5.47;79.55;97962.45;104975;1271;74232;-26
2022/04/21 03:46:40;;;;;;;33.30;18.60;;;;;;;5.50;80.07;97959.50;104903;1271;61889;-25
2022/04/21 03:49:07;;;;;;;31.60;17.20;;;;;;;6.00;78.12;97960.94;104883;1271;61113;-25
2022/04/21 03:51:43;;;;;;;32.50;17.40;;;;;;;6.16;77.05;97960.73;104846;1271;75557;-26
2022/04/21 03:54:12;;;;;;;33.80;18.40;;;;;;;6.06;77.32;97963.55;104817;1274;75955;-25
2022/04/21 03:56:39;;;;;;;33.10;18.30;;;;;;;5.90;78.03;97964.43;104902;1271;74197;-26
2022/04/21 03:59:09;;;;;;;28.90;15.30;;;;;;;5.58;79.19;97962.48;104905;1270;61146;-26
2022/04/21 04:01:36;;;;;;;27.60;16.30;;;;;;;5.63;79.75;97962.23;104787;1274;61023;-26
2022/04/21 04:04:24;;;;;;;31.00;16.10;;;;;;;6.04;78.10;97960.63;104752;1271;75960;-26
2022/04/21 04:12:29;;;;;;;35.10;21.00;;;;;;;5.59;79.93;97961.21;104816;1271;62610;-26
2022/04/21 04:14:57;;;;;;;25.80;15.70;;;;;;;5.42;81.22;97962.83;104747;1271;61121;-26
2022/04/21 04:17:31;;;;;;;35.10;19.70;;;;;;;5.95;79.46;97960.83;104809;1271;75594;-26
2022/04/21 04:19:59;;;;;;;26.30;15.70;;;;;;;6.25;77.96;97963.25;105139;1270;75930;-26
2022/04/21 04:22:47;;;;;;;27.40;13.90;;;;;;;6.23;77.67;97965.32;104904;1271;75437;-26
2022/04/21 04:25:14;;;;;;;29.40;16.80;;;;;;;6.00;78.34;97960.91;104917;1271;61843;-26
2022/04/21 04:27:43;;;;;;;28.80;15.20;;;;;;;5.85;79.28;97961.61;105173;1271;62055;-26
2022/04/21 04:30:11;;;;;;;13.80;8.10;;;;;;;5.63;80.42;97958.35;104995;1271;75817;-26
2022/04/21 04:32:39;;;;;;;26.50;15.40;;;;;;;5.84;80.10;97960.64;105032;1271;75962;-26
2022/04/21 04:35:09;;;;;;;27.20;15.80;;;;;;;6.20;78.46;97960.76;104961;1271;74367;-26
2022/04/21 04:37:40;;;;;;;18.90;12.00;;;;;;;6.16;78.52;97957.64;104949;1271;61411;-26
2022/04/21 04:40:08;;;;;;;36.00;18.80;;;;;;;5.97;79.17;97959.80;104964;1271;62420;-26
2022/04/21 04:42:36;;;;;;;30.50;18.70;;;;;;;5.79;80.46;97960.53;104815;1271;75399;-27
2022/04/21 04:47:50;;;;;;;23.10;13.10;;;;;;;6.01;80.37;97962.77;104771;1271;74467;-25
2022/04/21 04:50:19;;;;;;;27.80;15.70;;;;;;;6.22;79.07;97961.30;104933;1271;61156;-25
2022/04/21 04:52:47;;;;;;;24.40;15.20;;;;;;;6.18;79.03;97961.92;104882;1271;61153;-26
2022/04/21 04:55:16;;;;;;;29.90;15.90;;;;;;;5.89;80.16;97961.94;104746;1271;75351;-26
2022/04/21 04:58:03;;;;;;;20.20;11.20;;;;;;;5.65;81.28;97957.98;104870;1271;76887;-27
2022/04/21 05:00:34;;;;;;;26.30;15.00;;;;;;;5.65;81.55;97952.63;104905;1271;73242;-25
2022/04/21 05:03:03;;;;;;;21.00;13.70;;;;;;;6.08;80.05;97962.70;104962;1271;61035;-26
2022/04/21 05:05:30;;;;;;;24.80;14.70;;;;;;;6.18;79.26;97958.51;104866;1271;62011;-26
2022/04/21 05:07:58;;;;;;;23.50;15.70;;;;;;;6.04;79.86;97958.36;104801;1274;75625;-26
2022/04/21 05:10:28;;;;;;;26.00;16.60;;;;;;;5.87;80.88;97961.59;104735;1274;76100;-26
2022/04/21 05:12:57;;;;;;;20.70;12.80;;;;;;;5.61;81.89;97958.63;104790;1271;74455;-25
2022/04/21 05:15:44;;;;;;;18.40;11.00;;;;;;;5.61;82.43;97955.33;104790;1271;63190;-26
2022/04/21 05:18:12;;;;;;;21.70;13.30;;;;;;;6.01;81.10;97959.11;104998;1271;61147;-26
2022/04/21 05:20:41;;;;;;;19.50;12.40;;;;;;;6.12;80.46;97958.48;104811;1271;75330;-26
2022/04/21 05:23:08;;;;;;;24.90;13.80;;;;;;;5.94;80.85;97952.27;104944;1271;74653;-26
2022/04/21 05:25:37;;;;;;;22.10;12.30;;;;;;;5.77;81.83;97956.14;104741;1271;74197;-26
2022/04/21 05:28:25;;;;;;;18.80;12.10;;;;;;;5.53;82.73;97945.65;104800;1271;64913;-26
2022/04/21 05:30:58;;;;;;;17.10;10.00;;;;;;;5.97;82.05;97953.59;104751;1271;61143;-26
2022/04/21 05:33:26;;;;;;;22.30;13.60;;;;;;;6.21;80.45;97953.11;104756;1271;75343;-26
2022/04/21 05:35:55;;;;;;;22.20;12.20;;;;;;;6.09;81.06;97956.76;104778;1272;75159;-26
2022/04/21 05:38:23;;;;;;;20.20;13.60;;;;;;;5.94;81.43;97959.71;104811;1271;74502;-26
2022/04/21 05:40:50;;;;;;;17.00;9.90;;;;;;;5.67;82.63;97957.30;104813;1271;62028;-26
2022/04/21 05:43:19;;;;;;;18.80;11.20;;;;;;;5.77;82.48;97957.41;104810;1271;61133;-26
2022/04/21 05:46:07;;;;;;;17.10;10.70;;;;;;;5.99;81.58;97958.46;104739;1271;76586;-28
2022/04/21 05:48:35;;;;;;;16.00;10.50;;;;;;;6.06;81.06;97958.56;104762;1271;76168;-26
2022/04/21 05:51:04;;;;;;;21.10;13.30;;;;;;;5.92;81.48;97954.13;104776;1271;72345;-26
2022/04/21 05:53:36;;;;;;;18.80;12.30;;;;;;;5.72;82.74;97953.12;104862;1271;61087;-26
2022/04/21 05:56:14;;;;;;;17.10;11.00;;;;;;;5.59;83.71;97952.45;104966;1271;61169;-26
2022/04/21 05:58:42;;;;;;;16.40;10.60;;;;;;;6.02;82.22;97952.89;104799;1271;75614;-25
2022/04/21 06:01:10;;;;;;;19.00;13.20;;;;;;;6.23;81.04;97953.64;105014;1271;77381;-25
2022/04/21 06:03:38;;;;;;;23.60;14.30;;;;;;;6.13;81.14;97954.61;104991;1271;74448;-26
2022/04/21 06:06:06;;;;;;;20.20;12.90;;;;;;;6.02;82.05;97955.41;104993;1271;61124;-25
2022/04/21 06:08:41;;;;;;;17.70;13.10;;;;;;;5.76;83.09;97959.17;104660;1271;61122;-25
2022/04/21 06:11:11;;;;;;;19.50;12.70;;;;;;;5.83;83.79;97961.23;104948;1271;73390;-26
2022/04/21 06:13:53;;;;;;;18.50;11.50;;;;;;;6.23;81.83;97963.94;104888;1271;76134;-26
2022/04/21 06:16:22;;;;;;;17.50;11.00;;;;;;;6.40;80.78;97969.65;104986;1271;74494;-25
2022/04/21 06:19:09;;;;;;;16.80;10.10;;;;;;;6.20;81.35;97968.87;104971;1271;63085;-25
2022/04/21 06:21:45;;;;;;;15.90;9.60;;;;;;;6.00;81.70;97967.09;104718;1271;61209;-26
2022/04/21 06:24:12;;;;;;;14.40;9.70;;;;;;;5.98;82.30;97969.36;104921;1271;75504;-26
2022/04/21 06:26:42;;;;;;;18.80;11.10;;;;;;;6.28;81.04;97974.04;105031;1271;75746;-25
2022/04/21 06:29:10;;;;;;;20.80;11.40;;;;;;;6.19;81.52;97972.35;104937;1271;74746;-25
2022/04/21 06:31:40;;;;;;;14.60;9.90;;;;;;;6.30;81.14;97976.34;104936;1271;61038;-25
2022/04/21 06:34:07;;;;;;;21.30;11.50;;;;;;;6.14;81.74;97977.90;104967;1271;61206;-25
2022/04/21 06:36:35;;;;;;;13.70;7.90;;;;;;;5.97;82.28;97977.33;105006;1271;75480;-25
2022/04/21 06:39:22;;;;;;;14.80;9.80;;;;;;;6.39;81.65;97976.79;104781;1271;77426;-26
2022/04/21 06:41:50;;;;;;;14.60;9.50;;;;;;;6.71;79.88;97973.67;104790;1271;74334;-25
2022/04/21 06:50:35;;;;;;;15.30;10.30;;;;;;;5.82;82.82;97969.89;104829;1271;75437;-26
2022/04/21 06:53:07;;;;;;;13.10;8.60;;;;;;;6.25;81.71;97970.50;104800;1271;74837;-26
2022/04/21 06:55:45;;;;;;;16.90;10.20;;;;;;;6.36;80.12;97969.42;104764;1272;74183;-26
2022/04/21 06:58:13;;;;;;;17.20;10.80;;;;;;;6.48;80.55;97978.66;104892;1271;61161;-26
2022/04/21 07:00:41;;;;;;;19.00;11.30;;;;;;;6.50;80.63;97978.80;104838;1272;61150;-25
2022/04/21 07:03:09;;;;;;;13.60;10.10;;;;;;;6.08;82.33;97977.90;104966;1271;77437;-25
2022/04/21 07:05:37;;;;;;;19.30;10.60;;;;;;;6.09;81.98;97975.20;104862;1271;76140;-25
2022/04/21 07:08:22;;;;;;;18.40;11.80;;;;;;;6.57;80.82;97980.13;104933;1271;74494;-25
2022/04/21 07:10:50;;;;;;;18.80;11.50;;;;;;;6.66;79.72;97975.46;104825;1271;61315;-25
2022/04/21 07:14:03;;;;;;;15.40;8.60;;;;;;;6.45;79.49;97972.37;104970;1271;62091;-25
2022/04/21 07:16:31;;;;;;;19.90;11.20;;;;;;;6.01;81.89;97975.83;105012;1271;75497;-25
2022/04/21 07:19:18;;;;;;;20.20;12.70;;;;;;;5.94;82.36;97974.46;104974;1271;75666;-25
2022/04/21 07:21:48;;;;;;;19.60;12.10;;;;;;;6.46;80.96;97978.99;105006;1271;74285;-25
2022/04/21 07:24:16;;;;;;;15.50;10.20;;;;;;;6.75;79.98;97975.95;104954;1271;61134;-25
2022/04/21 07:26:43;;;;;;;20.60;13.00;;;;;;;6.64;79.52;97971.00;104973;1271;61105;-26
2022/04/21 07:29:11;;;;;;;18.90;11.90;;;;;;;6.29;81.22;97971.21;104886;1271;74522;-26
2022/04/21 07:31:40;;;;;;;10.80;7.10;;;;;;;6.18;81.36;97971.73;104910;1271;75360;-26
2022/04/21 07:34:07;;;;;;;18.10;12.20;;;;;;;6.30;81.45;97976.31;104915;1271;73473;-26
2022/04/21 07:36:37;;;;;;;18.10;8.60;;;;;;;6.51;80.48;97972.36;104954;1271;61041;-27
2022/04/21 07:39:04;;;;;;;17.70;11.20;;;;;;;6.74;79.83;97972.09;104703;1271;61151;-27
2022/04/21 07:41:33;;;;;;;16.10;10.60;;;;;;;6.68;79.76;97973.77;104997;1271;75523;-25
2022/04/21 07:44:20;;;;;;;20.00;12.40;;;;;;;6.41;80.90;97973.35;104981;1271;76473;-28
2022/04/21 07:46:48;;;;;;;15.00;9.90;;;;;;;6.26;82.45;97981.30;104965;1271;73966;-26
2022/04/21 07:49:45;;;;;;;16.40;10.70;;;;;;;6.63;80.90;97981.55;104778;1271;61004;-27
2022/04/21 07:55:17;;;;;;;13.50;8.60;;;;;;;6.99;79.38;97982.20;104796;1271;75496;-26
2022/04/21 07:58:03;;;;;;;11.70;8.80;;;;;;;6.68;80.35;97986.02;104816;1271;76040;-27
2022/04/21 08:00:32;;;;;;;11.90;7.70;;;;;;;6.40;82.05;97980.88;104987;1271;74143;-28
2022/04/21 08:02:59;;;;;;;11.80;7.60;;;;;;;6.60;81.56;97983.53;104847;1271;61457;-27
2022/04/21 08:05:27;;;;;;;15.60;8.90;;;;;;;6.88;79.67;97983.31;104896;1271;60983;-27
2022/04/21 08:07:55;;;;;;;13.10;8.50;;;;;;;6.94;79.48;97988.72;105252;1270;74111;-27
2022/04/21 08:10:23;;;;;;;11.90;8.40;;;;;;;6.91;80.16;97983.09;105230;1271;75821;-26
2022/04/21 08:12:59;;;;;;;18.10;7.40;;;;;;;6.65;80.43;97984.38;105089;1271;74324;-26
2022/04/21 08:15:30;;;;;;;10.10;6.00;;;;;;;6.51;81.34;97981.02;105094;1271;63940;-26
2022/04/21 08:17:59;;;;;;;11.40;7.90;;;;;;;6.84;80.05;97978.49;104880;1271;61735;-26
2022/04/21 08:20:29;;;;;;;10.90;6.90;;;;;;;7.16;79.16;97981.88;105107;1271;74604;-26
2022/04/21 08:22:56;;;;;;;13.80;8.10;;;;;;;7.15;78.99;97988.38;105072;1272;74575;-26
2022/04/21 08:34:25;;;;;;;7.70;5.80;;;;;;;7.18;79.33;97991.05;104810;1271;74363;-26
2022/04/21 08:36:54;;;;;;;11.70;7.90;;;;;;;7.13;79.84;97990.41;105096;1271;76127;-26
2022/04/21 08:39:23;;;;;;;9.20;6.70;;;;;;;7.08;80.44;97989.77;104866;1271;74291;-26
2022/04/21 08:41:52;;;;;;;14.20;6.80;;;;;;;6.83;80.92;97983.55;104938;1271;61259;-26
2022/04/21 08:44:20;;;;;;;8.00;5.90;;;;;;;6.76;81.76;97990.38;104842;1271;61887;-26
2022/04/21 08:46:48;;;;;;;9.40;6.70;;;;;;;7.30;79.20;97987.08;105057;1271;75648;-26
2022/04/21 08:49:21;;;;;;;8.60;5.20;;;;;;;7.41;78.97;97989.78;105060;1271;76137;-26
2022/04/21 08:52:08;;;;;;;10.10;6.10;;;;;;;7.36;79.38;97989.15;104854;1271;74405;-26
2022/04/21 08:54:38;;;;;;;8.20;6.10;;;;;;;7.14;79.65;97989.11;104938;1271;61150;-26
2022/04/21 08:57:10;;;;;;;9.60;5.70;;;;;;;6.80;80.86;97984.35;104802;1272;61069;-26
2022/04/21 08:59:37;;;;;;;7.00;4.60;;;;;;;7.00;81.22;97988.77;104986;1271;75572;-26
2022/04/21 09:02:06;;;;;;;7.70;5.10;;;;;;;7.36;79.26;97988.27;104834;1271;75916;-26
2022/04/21 09:04:34;;;;;;;7.70;5.50;;;;;;;7.23;79.21;97988.17;104798;1272;74496;-25
2022/04/21 09:07:19;;;;;;;7.80;5.20;;;;;;;7.22;80.00;97989.02;104778;1273;61142;-25
2022/04/21 09:09:59;;;;;;;9.40;5.60;;;;;;;7.12;80.45;97993.38;104808;1272;61850;-25
2022/04/21 09:12:33;;;;;;;6.70;4.90;;;;;;;7.04;80.45;97985.77;104810;1271;75368;-25
2022/04/21 09:15:06;;;;;;;7.60;5.20;;;;;;;7.44;78.93;97984.56;104778;1272;75836;-25
2022/04/21 09:17:56;;;;;;;8.80;5.70;;;;;;;7.78;78.20;97989.71;104741;1271;75545;-25
2022/04/21 09:20:29;;;;;;;7.60;5.30;;;;;;;7.60;78.20;97989.22;104809;1272;61169;-26
2022/04/21 09:22:59;;;;;;;7.50;5.20;;;;;;;7.50;79.07;97993.48;105041;1271;61114;-25
2022/04/21 09:25:31;;;;;;;7.20;4.50;;;;;;;7.17;79.81;97991.30;104780;1272;73483;-26
2022/04/21 09:28:03;;;;;;;6.30;4.40;;;;;;;7.23;80.62;97990.08;104646;1274;76086;-25
2022/04/21 09:30:31;;;;;;;5.80;4.00;;;;;;;7.63;79.02;97986.17;104787;1271;74376;-25
2022/04/21 09:32:59;;;;;;;5.60;3.50;;;;;;;7.88;78.08;97989.77;104932;1271;61923;-25
2022/04/21 09:35:28;;;;;;;6.10;4.10;;;;;;;7.91;78.03;97986.93;104979;1271;61264;-25
2022/04/21 09:37:57;;;;;;;6.50;4.40;;;;;;;7.77;78.64;97985.17;104825;1274;74428;-25
2022/04/21 09:40:28;;;;;;;5.70;4.00;;;;;;;7.55;79.39;97983.79;104750;1271;75065;-25
2022/04/21 09:43:00;;;;;;;4.70;3.70;;;;;;;7.42;79.07;97987.10;104744;1272;74465;-25
2022/04/21 09:48:22;;;;;;;6.70;4.10;;;;;;;8.08;76.81;97984.69;104839;1271;61290;-25
2022/04/21 09:50:53;;;;;;;6.00;4.40;;;;;;;7.92;77.45;97984.20;105139;1271;75386;-25
2022/04/21 09:53:23;;;;;;;5.20;3.70;;;;;;;7.67;77.90;97980.35;105233;1271;75814;-25
2022/04/21 09:56:08;;;;;;;6.10;4.00;;;;;;;7.60;79.20;97983.50;104771;1271;72543;-25
2022/04/21 09:58:37;;;;;;;6.90;3.40;;;;;;;7.54;78.97;97988.37;104870;1271;62530;-25
2022/04/21 10:01:05;;;;;;;6.40;4.50;;;;;;;7.97;77.68;97986.26;104819;1271;61147;-27
2022/04/21 10:03:33;;;;;;;6.10;4.30;;;;;;;8.14;76.70;97984.56;104717;1272;75725;-26
2022/04/21 10:06:02;;;;;;;6.20;4.20;;;;;;;8.10;77.34;97994.04;105048;1272;75935;-26
2022/04/21 10:08:30;;;;;;;7.10;5.20;;;;;;;7.84;77.45;97990.10;104645;1271;365162;-26
2022/04/21 10:11:23;;;;;;;7.10;4.30;;;;;;;7.75;78.97;97997.77;104913;1271;61478;-27
2022/04/21 10:13:57;;;;;;;5.10;3.60;;;;;;;7.71;79.07;97999.13;105085;1271;62059;-26
2022/04/21 10:16:44;;;;;;;;;;;;;;;8.18;77.09;98001.13;105170;1270;76729;-27
2022/04/21 10:19:13;;;;;;;4.20;3.10;;;;;;;8.28;75.58;98002.54;105187;1271;75911;-27
2022/04/21 10:21:55;;;;;;;7.10;3.70;;;;;;;8.26;75.78;98007.08;104957;1271;73227;-27
2022/04/21 10:24:34;;;;;;;7.30;4.60;;;;;;;8.08;76.27;98006.15;104842;1271;62150;-27
2022/04/21 10:27:03;;;;;;;5.20;3.40;;;;;;;7.78;77.27;98010.50;104623;1271;61071;-26
2022/04/21 10:29:51;;;;;;;5.30;3.90;;;;;;;7.62;78.94;98010.26;104581;1274;76882;-25
2022/04/21 10:32:19;;;;;;;7.50;4.30;;;;;;;7.92;76.95;98012.05;104843;1274;74962;-25
2022/04/21 10:34:48;;;;;;;5.20;3.60;;;;;;;8.21;75.68;98019.02;104907;1271;74775;-25
2022/04/21 10:37:21;;;;;;;5.50;4.40;;;;;;;8.07;76.53;98016.98;104789;1274;62033;-25
2022/04/21 10:40:03;;;;;;;6.90;4.80;;;;;;;7.94;77.67;98021.20;104709;1272;61204;-24
2022/04/21 10:42:55;;;;;;;6.70;4.20;;;;;;;7.81;78.05;98026.80;104816;1271;74372;-25
2022/04/21 10:45:42;;;;;;;6.50;4.40;;;;;;;7.76;78.95;98029.83;104718;1271;77162;-24
2022/04/21 10:48:12;;;;;;;5.50;3.60;;;;;;;8.26;76.95;98033.45;104866;1272;74545;-25
2022/04/21 10:50:58;;;;;;;5.90;4.60;;;;;;;8.55;76.02;98040.63;104961;1271;61127;-25
2022/04/21 10:59:19;;;;;;;5.80;4.40;;;;;;;7.98;78.33;98036.61;104780;1274;75859;-25
2022/04/21 11:01:53;;;;;;;6.70;4.00;;;;;;;7.88;78.84;98040.35;104939;1271;74395;-25
2022/04/21 11:04:26;;;;;;;5.20;3.50;;;;;;;8.38;77.05;98046.06;104771;1271;61827;-25
2022/04/21 11:07:14;;;;;;;4.80;3.40;;;;;;;8.67;75.05;98045.30;104944;1271;61107;-27
2022/04/21 11:09:46;;;;;;;6.40;4.20;;;;;;;8.67;75.14;98050.11;104929;1271;75548;-26
2022/04/21 11:12:53;;;;;;;6.20;3.90;;;;;;;8.43;76.64;98049.08;105105;1271;75986;-25
2022/04/21 11:15:45;;;;;;;6.10;4.00;;;;;;;8.27;78.16;98049.95;105134;1271;74570;-25
2022/04/21 11:18:31;;;;;;;4.40;3.00;;;;;;;8.20;77.56;98050.20;105069;1271;62521;-26
2022/04/21 11:21:26;;;;;;;6.30;3.70;;;;;;;8.79;76.15;98058.10;104862;1271;61802;-25
2022/04/21 11:23:57;;;;;;;5.20;3.70;;;;;;;9.08;74.85;98062.47;104787;1271;75501;-25
2022/04/21 11:26:31;;;;;;;5.80;4.60;;;;;;;8.87;75.63;98063.61;104847;1271;76042;-25
2022/04/21 11:29:03;;;;;;;5.30;4.20;;;;;;;8.66;75.95;98061.09;104898;1271;74460;-25
2022/04/21 11:33:25;;;;;;;6.50;4.60;;;;;;;8.28;77.47;98059.73;101549;1309;601516;-25
2022/04/21 11:36:08;;;;;;;5.50;3.60;;;;;;;8.22;77.36;98058.73;104385;1284;63776;-25
2022/04/21 11:38:43;;;;;;;5.40;3.90;;;;;;;8.68;76.91;98063.61;104207;1284;61096;-25
2022/04/21 11:41:31;;;;;;;4.50;3.20;;;;;;;8.96;75.26;98059.15;104201;1284;74893;-25
2022/04/21 11:44:01;;;;;;;5.00;3.80;;;;;;;8.82;75.48;98061.95;104454;1280;75971;-25
2022/04/21 11:46:30;;;;;;;6.80;4.10;;;;;;;8.73;76.52;98065.70;104206;1280;357059;-25
2022/04/21 11:49:00;;;;;;;6.40;4.30;;;;;;;8.58;76.74;98062.55;104659;1277;61287;-25
2022/04/21 11:51:29;;;;;;;5.40;3.40;;;;;;;8.52;77.38;98061.17;104454;1280;61964;-26
2022/04/21 11:54:05;;;;;;;5.20;3.60;;;;;;;9.00;76.40;98065.20;104562;1278;73997;-25
2022/04/21 11:56:49;;;;;;;6.20;4.20;;;;;;;9.39;74.69;98068.76;104286;1277;76610;-25
2022/04/21 11:59:38;;;;;;;6.60;4.40;;;;;;;9.33;74.64;98069.29;104214;1280;75301;-25
2022/04/21 12:06:28;;;;;;;6.80;4.20;;;;;;;8.74;75.71;98064.91;104544;1278;62259;-25
2022/04/21 12:08:07;;;;;;;6.20;3.40;;;;;;;8.52;77.07;98064.59;104601;1281;74555;-25
2022/04/21 12:10:58;;;;;;;6.00;4.50;;;;;;;8.98;75.89;98068.35;104531;1280;75102;-25
2022/04/21 12:13:27;;;;;;;7.20;4.30;;;;;;;9.08;75.89;98071.40;104365;1280;74477;-25
2022/04/21 12:15:57;;;;;;;6.80;4.20;;;;;;;8.91;75.90;98068.60;104306;1280;62014;-25
2022/04/21 12:18:48;;;;;;;7.20;5.00;;;;;;;8.65;75.85;98066.96;104290;1280;61234;-25
2022/04/21 12:21:36;;;;;;;11.00;4.80;;;;;;;8.44;76.64;98069.32;104345;1280;74732;-25
2022/04/21 12:24:12;;;;;;;5.30;3.90;;;;;;;8.32;78.47;98066.81;104289;1280;75973;-25
2022/04/21 12:26:53;;;;;;;8.50;4.00;;;;;;;8.94;76.68;98072.27;104159;1280;74436;-26
2022/04/21 12:29:22;;;;;;;5.50;4.30;;;;;;;9.24;75.52;98076.02;104274;1279;61944;-25
2022/04/21 12:31:52;;;;;;;5.70;4.30;;;;;;;9.18;75.18;98077.08;104517;1281;61064;-25
2022/04/21 12:34:27;;;;;;;5.90;4.20;;;;;;;8.95;76.41;98075.14;104333;1281;74710;-25
2022/04/21 12:37:23;;;;;;;6.70;4.10;;;;;;;8.73;76.71;98076.93;104205;1280;77223;-26
2022/04/21 12:39:52;;;;;;;5.60;4.20;;;;;;;8.54;77.26;98079.30;104524;1281;73250;-28
2022/04/21 12:42:43;;;;;;;4.60;3.40;;;;;;;8.46;78.74;98081.40;104636;1280;63222;-28
2022/04/21 12:45:12;;;;;;;4.70;3.60;;;;;;;9.01;76.93;98083.82;104601;1281;61114;-28
2022/04/21 12:48:02;;;;;;;4.10;3.30;;;;;;;9.30;76.05;98089.18;104347;1281;75021;-28
2022/04/21 12:50:32;;;;;;;5.80;4.10;;;;;;;9.22;75.53;98093.14;104257;1280;75002;-28